Main page
METAR-TAF:

METAR-TAF

Airports :

Sukkur Airport

Sukkur, Pakistan

latitude: 27-43-19N, longitude: 068-47-31E, elevation: 60 m

Current weather observation

The report was made 2 hours and 21 minutes ago, at 20:00 UTC
Wind 6 kt from the Northeast
Temperature 15°C
Humidity 72%
Pressure 1013 hPa
Visibility: 4000 m
haze

METAR: OPSK 202000Z 05006KT 4000 HZ NSC 15/10 Q1013 NOSIG

Time: 03:21 (22:21 UTC)

Forecast

The report was made 6 hours and 51 minutes ago, at 15:30 UTC
Forecast valid from 20 at 18 UTC to 21 at 18 UTC
Wind 10 kt from the Northeast
Visibility: 3000 m
haze
Temporary
from 21 at 01 UTC to 21 at 05 UTC
Wind 5 kt from the North/Northeast
Visibility: 2000 m
smoke
From 21 at 0500 UTC
Wind 10 kt from the Northeast
Visibility: 5000 m
haze

TAF: OPSK 201530Z 2018/2118 05010KT 3000 HZ NSC TEMPO 2101/2105 02005KT 2000 FU NSC FM210500 04010KT 5000 HZ NSC

Weather observations and forecasts of more than 4000 airports (METAR and TAF reports).

The available stations are represented by yellow and red dots on the map.

Hover mouse over dot to see the name of the station.

Then click to see weather observations and forecasts.

To change the map : click on the green buttons with a black cross to zoom in, on the green button with a dash to zoom out, or on the green arrows for adjacent maps.


METAR-TAF: